TimeCST,TemperatureF,Dew PointF,Humidity,Sea Level PressureIn,VisibilityMPH,Wind Direction,Wind SpeedMPH,Gust SpeedMPH,PrecipitationIn,Events,Conditions,WindDirDegrees,DateUTC
12:15 AM,41.2,32.0,70,30.19,10.0,Calm,Calm,-,N/A,,Mostly Cloudy,0,2012-11-04 05:15:00
12:35 AM,42.3,32.0,67,30.18,10.0,Calm,Calm,-,N/A,,Overcast,0,2012-11-04 05:35:00
12:55 AM,42.1,32.7,69,30.18,10.0,Calm,Calm,-,N/A,,Overcast,0,2012-11-04 05:55:00
1:15 AM,40.6,32.0,71,30.18,10.0,Calm,Calm,-,N/A,,Mostly Cloudy,0,2012-11-04 06:15:00
1:35 AM,41.9,32.4,69,30.18,10.0,Calm,Calm,-,N/A,,Scattered Clouds,0,2012-11-04 06:35:00
1:55 AM,42.8,32.4,67,30.18,10.0,Calm,Calm,-,N/A,,Mostly Cloudy,0,2012-11-04 06:55:00
1:15 AM,42.4,32.9,69,30.18,10.0,Calm,Calm,-,N/A,,Mostly Cloudy,0,2012-11-04 07:15:00
1:35 AM,42.3,32.9,69,30.19,10.0,Calm,Calm,-,N/A,,Mostly Cloudy,0,2012-11-04 07:35:00
1:55 AM,41.4,33.8,74,30.19,10.0,Calm,Calm,-,N/A,,Overcast,0,2012-11-04 07:55:00
2:15 AM,40.1,33.3,77,30.19,10.0,Calm,Calm,-,N/A,,Scattered Clouds,0,2012-11-04 08:15:00
2:35 AM,39.6,33.3,78,30.19,10.0,Calm,Calm,-,N/A,,Scattered Clouds,0,2012-11-04 08:35:00
2:55 AM,38.8,32.4,78,30.19,10.0,Calm,Calm,-,N/A,,Scattered Clouds,0,2012-11-04 08:55:00
3:15 AM,37.6,32.5,82,30.18,10.0,Calm,Calm,-,N/A,,Scattered Clouds,0,2012-11-04 09:15:00
3:35 AM,37.9,33.1,83,30.18,10.0,Calm,Calm,-,N/A,,Scattered Clouds,0,2012-11-04 09:35:00
3:55 AM,38.1,33.1,82,30.18,10.0,Calm,Calm,-,N/A,,Mostly Cloudy,0,2012-11-04 09:55:00
4:15 AM,39.0,33.1,79,30.18,10.0,Calm,Calm,-,N/A,,Scattered Clouds,0,2012-11-04 10:15:00
4:35 AM,38.8,33.1,80,30.18,10.0,Calm,Calm,-,N/A,,Clear,0,2012-11-04 10:35:00
4:55 AM,39.4,33.4,79,30.19,10.0,Calm,Calm,-,N/A,,Scattered Clouds,0,2012-11-04 10:55:00
5:15 AM,40.6,33.3,75,30.19,10.0,Calm,Calm,-,N/A,,Mostly Cloudy,0,2012-11-04 11:15:00
5:35 AM,41.4,33.8,74,30.18,10.0,Calm,Calm,-,N/A,,Overcast,0,2012-11-04 11:35:00
6:15 AM,40.6,34.0,77,30.17,10.0,Calm,Calm,-,N/A,,Overcast,0,2012-11-04 12:15:00
6:35 AM,40.1,33.8,78,30.17,10.0,Calm,Calm,-,N/A,,Mostly Cloudy,0,2012-11-04 12:35:00
6:55 AM,39.4,33.3,79,30.18,10.0,Calm,Calm,-,N/A,,Mostly Cloudy,0,2012-11-04 12:55:00
7:15 AM,39.7,33.6,79,30.18,7.0,Calm,Calm,-,N/A,,Mostly Cloudy,0,2012-11-04 13:15:00
7:35 AM,38.5,34.0,84,30.19,7.0,Calm,Calm,-,N/A,,Mostly Cloudy,0,2012-11-04 13:35:00
7:55 AM,39.2,34.7,84,30.19,7.0,Calm,Calm,-,N/A,,Mostly Cloudy,0,2012-11-04 13:55:00
8:15 AM,40.1,35.2,83,30.18,7.0,Calm,Calm,-,N/A,,Mostly Cloudy,0,2012-11-04 14:15:00
8:35 AM,41.9,35.6,78,30.18,7.0,Calm,Calm,-,N/A,,Mostly Cloudy,0,2012-11-04 14:35:00
8:55 AM,43.9,37.0,77,30.17,10.0,Calm,Calm,-,N/A,,Mostly Cloudy,0,2012-11-04 14:55:00
9:15 AM,46.6,36.7,68,30.16,10.0,South,8.1,-,N/A,,Mostly Cloudy,180,2012-11-04 15:15:00
9:35 AM,49.3,35.4,59,30.15,10.0,South,9.2,-,N/A,,Overcast,190,2012-11-04 15:35:00
9:55 AM,50.7,35.6,56,30.15,10.0,South,9.2,-,N/A,,Overcast,190,2012-11-04 15:55:00
10:15 AM,51.6,35.1,53,30.15,10.0,South,9.2,-,N/A,,Mostly Cloudy,180,2012-11-04 16:15:00
10:35 AM,54.3,36.7,51,30.14,10.0,South,12.7,-,N/A,,Scattered Clouds,180,2012-11-04 16:35:00
10:55 AM,55.2,36.1,49,30.13,10.0,South,13.8,-,N/A,,Clear,170,2012-11-04 16:55:00
11:15 AM,56.8,36.3,46,30.12,10.0,SSE,13.8,-,N/A,,Clear,160,2012-11-04 17:15:00
11:35 AM,58.1,36.7,45,30.11,10.0,South,13.8,17.3,N/A,,Clear,170,2012-11-04 17:35:00
11:55 AM,59.4,37.0,43,30.09,10.0,South,17.3,20.7,N/A,,Clear,180,2012-11-04 17:55:00
12:15 PM,58.8,36.9,44,30.07,10.0,South,13.8,21.9,N/A,,Clear,170,2012-11-04 18:15:00
12:35 PM,59.9,37.0,43,30.05,10.0,SSE,15.0,20.7,N/A,,Clear,160,2012-11-04 18:35:00
12:55 PM,60.4,37.6,43,30.04,10.0,South,15.0,19.6,N/A,,Clear,170,2012-11-04 18:55:00
1:15 PM,60.6,37.2,42,30.03,10.0,South,16.1,20.7,N/A,,Clear,180,2012-11-04 19:15:00
1:35 PM,61.0,37.4,42,30.02,10.0,South,13.8,-,N/A,,Clear,190,2012-11-04 19:35:00
1:55 PM,61.3,37.4,41,30.02,10.0,South,12.7,-,N/A,,Clear,180,2012-11-04 19:55:00
2:15 PM,61.7,37.0,40,30.01,10.0,SSW,12.7,-,N/A,,Clear,200,2012-11-04 20:15:00
2:35 PM,61.3,37.6,41,30.02,10.0,South,11.5,-,N/A,,Clear,190,2012-11-04 20:35:00
2:55 PM,61.3,37.9,42,30.01,10.0,South,8.1,-,N/A,,Scattered Clouds,190,2012-11-04 20:55:00
3:15 PM,61.0,36.9,41,30.00,10.0,South,10.4,-,N/A,,Overcast,190,2012-11-04 21:15:00
3:35 PM,60.6,37.6,42,30.00,10.0,South,8.1,-,N/A,,Overcast,180,2012-11-04 21:35:00
3:55 PM,60.1,38.3,44,30.00,10.0,Calm,Calm,-,N/A,,Overcast,0,2012-11-04 21:55:00
4:15 PM,59.2,39.2,48,30.00,10.0,Calm,Calm,-,N/A,,Overcast,0,2012-11-04 22:15:00
4:35 PM,58.3,39.6,50,30.01,10.0,Calm,Calm,-,N/A,Rain,Rain,0,2012-11-04 22:35:00
4:55 PM,59.4,39.2,47,30.01,10.0,West,6.9,-,N/A,Rain,Light Rain,260,2012-11-04 22:55:00
5:15 PM,57.2,41.2,55,30.01,10.0,Calm,Calm,-,N/A,,Light Drizzle,0,2012-11-04 23:15:00
5:35 PM,56.1,41.2,57,30.01,10.0,Calm,Calm,-,N/A,,Overcast,0,2012-11-04 23:35:00
5:55 PM,57.2,40.1,53,30.02,10.0,Calm,Calm,-,N/A,,Light Drizzle,0,2012-11-04 23:55:00
6:15 PM,56.8,40.3,54,30.02,10.0,Calm,Calm,-,N/A,,Overcast,0,2012-11-05 00:15:00
6:35 PM,55.0,41.4,60,30.03,10.0,Calm,Calm,-,N/A,,Overcast,0,2012-11-05 00:35:00
6:55 PM,53.6,41.0,62,30.03,10.0,ESE,8.1,-,N/A,,Overcast,120,2012-11-05 00:55:00
7:15 PM,52.7,41.2,65,30.03,10.0,Calm,Calm,-,N/A,,Overcast,0,2012-11-05 01:15:00
7:35 PM,52.9,41.2,64,30.03,10.0,Calm,Calm,-,N/A,Rain,Light Rain,0,2012-11-05 01:35:00
7:55 PM,51.1,42.4,72,30.03,10.0,Calm,Calm,-,N/A,Rain,Light Rain,0,2012-11-05 01:55:00
8:15 PM,50.0,43.9,79,30.04,10.0,Calm,Calm,-,N/A,Rain,Light Rain,0,2012-11-05 02:15:00
8:35 PM,49.6,44.6,83,30.04,10.0,Calm,Calm,-,0.01,Rain,Light Rain,0,2012-11-05 02:35:00
8:55 PM,49.1,44.1,83,30.04,10.0,Calm,Calm,-,0.01,Rain,Rain,0,2012-11-05 02:55:00
9:15 PM,48.4,44.1,85,30.04,10.0,Calm,Calm,-,N/A,Rain,Light Rain,0,2012-11-05 03:15:00
9:35 PM,48.0,43.7,85,30.04,10.0,NW,6.9,-,0.01,Rain,Light Rain,310,2012-11-05 03:35:00
9:55 PM,46.8,44.1,90,30.03,10.0,NW,6.9,-,0.02,Rain,Light Rain,320,2012-11-05 03:55:00
10:15 PM,46.4,44.6,93,30.01,7.0,Calm,Calm,-,0.02,Rain,Light Rain,0,2012-11-05 04:15:00
10:35 PM,46.4,44.8,94,30.01,10.0,Calm,Calm,-,0.02,,Overcast,0,2012-11-05 04:35:00
10:55 PM,46.4,45.0,95,30.01,7.0,Calm,Calm,-,0.02,,Overcast,0,2012-11-05 04:55:00